Velma, Mississippi
Current Conditions -  °F | °C
As of 11:15 AM on Sunday 23 Nov 2014 (Local Time) from KUOX Reporting Station
Haze Haze  
Wind Chill: 57°   Ceiling: 500
Heat Index: 57°   Visibility: 2.5mi
Dew Point: 55°   Wind: 7mph
Humidity: 94%   Direction: 130°SE
Pressure: 29.56"   Gusts: 18mph
Location:  34.142°N, 89.6332°W
Report Text: KUOX 231715Z AUTO 13006G16KT 010V020 2 1/2SM BR BKN005 OVC010 14/13 A2956 RMK AO2 PWINO PNO
Loading
Personal Weather Stations






























Interactive Weather Map New forecast layout! Learn more

10-Day Weather Forecast

Advertisements
Track Severe Weather on mobile